Terminal Aerodrome Forecast
Issued by NWS

Home | Current Version | Previous Version | Text Only | Print | Product List | Glossary On
Versions: 1 2 3 4 5 6 7 8 9 10 11 12 13 14 15 16 17 18 19 20 21
000
FTUS45 KBOU 211911 AAA
TAFBJC
TAF AMD
KBJC 211911Z 2119/2218 27017G27KT P6SM FEW100
     FM220000 29010KT P6SM SCT200
     FM220300 25005KT P6SM FEW220
     FM221400 27015G25KT P6SM SCT220=

USA.gov is the U.S. government's official web portal to all federal, state and local government web resources and services.